KSWF

Stewart International Airport

New York, New York, USA
METAR KSWF 210345Z 27004KT 10SM SKC 02/M02 A3002
Observed Flight Rules
Jan-21 @ 03:45 UTC (an hour ago) Visual Flight Rules
Wind Visibility Clouds
270° at 4 knots 10 miles
  • Clear skies
Temperatures Readings
Current 2°C / 36°F
Dewpoint -2°C / 28°F
Humidity 75%
Altimeter 30.02" Hg
Pressure 1017 hPa
Elevation 150
METAR KSWF 210345Z 27004KT 10SM SKC 02/M02 A3002
Observed Flight Rules
Jan-21 @ 03:45 UTC
(an hour ago)
VFR
Wind Visibility
270° at 4 knots 10 miles
Clouds
  • Clear skies
Temperature Dewpoint
2°C / 36°F -2°C / 28°F
Humidity Altimeter Pressure
75% 30.02" Hg 1017 hPa